Sagamore Beach, Massachusetts
Current Conditions -  °F | °C
As of 10:35 AM on Monday 22 Dec 2014 (Local Time) from KFMH Reporting Station
Overcast Overcast  
Wind Chill: 40°   Ceiling: 3000
Heat Index: 45°   Visibility: 9mi
Dew Point: 39°   Wind: 8mph
Humidity: 81%   Direction: 60°ENE
Pressure: 30.35"   Gusts: NA
Location:  41.8°N, 70.53°W
Report Text: KFMH 221535Z AUTO 06007KT 9SM SCT024 OVC030 07/04 A3035 RMK AO2
Loading
Personal Weather Stations






























Interactive Weather Map New forecast layout! Learn more

10-Day Weather Forecast

Advertisements
Track Severe Weather on mobile